createdAt,value
2022-11-03T00:08:37.366Z,24.01
2022-11-03T00:18:42.369Z,24.03
2022-11-03T00:28:47.466Z,24.04
2022-11-03T00:38:52.345Z,24.13
2022-11-03T00:48:57.331Z,24.08
2022-11-03T00:59:02.338Z,24.03
2022-11-03T01:09:07.495Z,24.02
2022-11-03T01:19:12.701Z,23.98
2022-11-03T01:29:18.206Z,23.96
2022-11-03T01:39:23.356Z,23.94
2022-11-03T01:49:28.477Z,23.90
2022-11-03T01:59:33.816Z,23.91
2022-11-03T02:09:38.557Z,23.93
2022-11-03T02:19:44.190Z,23.87
2022-11-03T02:29:49.187Z,23.86
2022-11-03T02:39:54.524Z,23.88
2022-11-03T02:49:59.840Z,23.85
2022-11-03T03:00:05.119Z,23.84
2022-11-03T03:10:10.423Z,23.85
2022-11-03T03:20:15.495Z,23.84
2022-11-03T03:30:20.832Z,23.83
2022-11-03T03:40:25.800Z,23.80
2022-11-03T03:50:30.833Z,23.79
2022-11-03T04:00:35.979Z,23.85
2022-11-03T04:10:41.218Z,23.84
2022-11-03T04:20:46.720Z,23.85
2022-11-03T04:30:54.692Z,23.85
2022-11-03T04:41:02.330Z,23.84
2022-11-03T04:51:07.479Z,23.81
2022-11-03T05:01:13.024Z,23.80
2022-11-03T05:11:18.980Z,23.80
2022-11-03T05:21:24.184Z,23.79
2022-11-03T05:31:29.260Z,23.77
2022-11-03T05:41:34.701Z,23.75
2022-11-03T05:51:39.786Z,23.76
2022-11-03T06:01:45.088Z,23.76
2022-11-03T06:11:50.339Z,23.75
2022-11-03T06:21:55.472Z,23.73
2022-11-03T06:32:00.291Z,23.73
2022-11-03T06:42:05.483Z,23.73
2022-11-03T06:52:10.773Z,23.74
2022-11-03T07:02:16.280Z,23.73
2022-11-03T07:12:21.451Z,23.71
2022-11-03T07:22:26.431Z,23.69
2022-11-03T07:32:31.082Z,23.69
2022-11-03T07:42:36.574Z,23.69
2022-11-03T07:52:41.853Z,23.66
2022-11-03T08:02:47.072Z,23.67
2022-11-03T08:12:52.497Z,23.66
2022-11-03T08:23:25.323Z,23.62
2022-11-03T08:33:08.175Z,23.63
2022-11-03T08:43:14.303Z,23.60
2022-11-03T08:53:20.063Z,23.62
2022-11-03T09:03:25.462Z,23.63
2022-11-03T09:13:30.798Z,23.88
2022-11-03T09:23:36.370Z,23.86
2022-11-03T09:33:41.630Z,23.92
2022-11-03T09:43:46.943Z,23.96
2022-11-03T09:53:52.207Z,23.93
2022-11-03T10:03:57.464Z,23.99
2022-11-03T10:14:02.790Z,24.05
2022-11-03T10:24:08.591Z,24.06
2022-11-03T10:34:13.873Z,24.14
2022-11-03T10:44:19.063Z,24.19
2022-11-03T10:54:24.435Z,24.10
2022-11-03T11:04:29.549Z,24.01
2022-11-03T11:14:34.689Z,23.97
2022-11-03T11:24:39.476Z,23.94
2022-11-03T11:34:44.721Z,23.90
2022-11-03T11:44:49.793Z,23.89
2022-11-03T11:54:54.840Z,23.87
2022-11-03T12:05:00.058Z,23.86
2022-11-03T12:15:04.958Z,23.82
2022-11-03T12:25:10.210Z,23.82
2022-11-03T12:35:15.485Z,23.80
2022-11-03T12:45:20.393Z,23.80
2022-11-03T12:55:25.379Z,23.83
2022-11-03T13:05:30.526Z,23.80
2022-11-03T13:15:35.739Z,23.80
2022-11-03T13:25:41.179Z,23.77
2022-11-03T13:35:46.485Z,23.77
2022-11-03T13:45:52.242Z,23.76
2022-11-03T13:56:03.060Z,23.73
2022-11-03T14:06:07.799Z,23.71
2022-11-03T14:16:13.179Z,23.72
2022-11-03T14:26:32.702Z,23.73
2022-11-03T14:36:28.918Z,23.71
2022-11-03T14:46:34.412Z,23.69
2022-11-03T14:56:39.809Z,23.69
2022-11-03T15:06:45.001Z,23.68
2022-11-03T15:16:49.915Z,23.69
2022-11-03T15:26:54.989Z,23.69
2022-11-03T15:37:00.469Z,23.65
2022-11-03T15:47:05.786Z,23.65
2022-11-03T15:57:10.962Z,23.64
2022-11-03T16:07:16.021Z,23.62
2022-11-03T16:17:21.643Z,23.63
2022-11-03T16:27:26.529Z,23.62
2022-11-03T16:37:31.842Z,23.61
2022-11-03T16:47:37.033Z,23.59
2022-11-03T16:57:42.364Z,23.60
2022-11-03T17:07:53.208Z,23.59
2022-11-03T17:17:57.919Z,23.59
2022-11-03T17:28:03.251Z,23.57
2022-11-03T17:38:09.502Z,23.51
2022-11-03T17:48:15.379Z,23.55
2022-11-03T17:58:20.354Z,23.53
2022-11-03T18:08:25.524Z,23.50
2022-11-03T18:18:30.654Z,23.51
2022-11-03T18:28:35.717Z,23.55
2022-11-03T18:38:40.901Z,23.65
2022-11-03T18:48:46.585Z,23.76
2022-11-03T18:58:51.888Z,23.78
2022-11-03T19:08:57.330Z,23.84
2022-11-03T19:19:02.920Z,23.93
2022-11-03T19:29:08.446Z,23.97
2022-11-03T19:39:13.472Z,23.98
2022-11-03T19:49:19.051Z,23.95
2022-11-03T19:59:24.358Z,23.95
2022-11-03T20:09:29.769Z,23.98
2022-11-03T20:19:35.061Z,24.00
2022-11-03T20:29:40.409Z,24.09
2022-11-03T20:39:46.046Z,24.06
2022-11-03T20:49:51.447Z,24.06
2022-11-03T20:59:56.539Z,24.03
2022-11-03T21:10:01.735Z,24.02
2022-11-03T21:20:07.036Z,24.03
2022-11-03T21:30:11.949Z,24.10
2022-11-03T21:40:17.061Z,24.11
2022-11-03T21:50:22.489Z,24.12
2022-11-03T22:00:27.823Z,24.17
2022-11-03T22:10:32.773Z,24.10
2022-11-03T22:20:37.704Z,24.14
2022-11-03T22:30:42.964Z,24.18
2022-11-03T22:40:47.934Z,24.20
2022-11-03T22:50:53.316Z,24.17
2022-11-03T23:00:58.860Z,24.28
2022-11-03T23:11:03.882Z,24.22
2022-11-03T23:21:09.266Z,24.17
2022-11-03T23:31:14.594Z,24.12
2022-11-03T23:41:19.707Z,24.12
2022-11-03T23:51:25.372Z,24.09
